sensor_id;sensor_type;location;lat;lon;timestamp;P1;durP1;ratioP1;P2;durP2;ratioP2
4206;SDS011;2117;47.972;7.830;2023-01-31T00:01:55;9.33;;;6.20;;
4206;SDS011;2117;47.972;7.830;2023-01-31T00:04:20;7.30;;;5.43;;
4206;SDS011;2117;47.972;7.830;2023-01-31T00:06:46;7.97;;;4.80;;
4206;SDS011;2117;47.972;7.830;2023-01-31T00:09:15;7.30;;;5.30;;
4206;SDS011;2117;47.972;7.830;2023-01-31T00:11:41;6.60;;;4.50;;
4206;SDS011;2117;47.972;7.830;2023-01-31T00:14:06;8.30;;;4.80;;
4206;SDS011;2117;47.972;7.830;2023-01-31T00:16:34;6.83;;;4.50;;
4206;SDS011;2117;47.972;7.830;2023-01-31T00:19:01;7.30;;;4.00;;
4206;SDS011;2117;47.972;7.830;2023-01-31T00:21:28;6.27;;;4.30;;
4206;SDS011;2117;47.972;7.830;2023-01-31T00:23:54;7.30;;;4.70;;
4206;SDS011;2117;47.972;7.830;2023-01-31T00:26:22;6.90;;;3.87;;
4206;SDS011;2117;47.972;7.830;2023-01-31T00:28:53;5.03;;;3.53;;
4206;SDS011;2117;47.972;7.830;2023-01-31T00:31:21;7.10;;;3.60;;
4206;SDS011;2117;47.972;7.830;2023-01-31T00:33:48;6.80;;;3.40;;
4206;SDS011;2117;47.972;7.830;2023-01-31T00:36:15;4.53;;;3.80;;
4206;SDS011;2117;47.972;7.830;2023-01-31T00:38:42;4.97;;;3.80;;
4206;SDS011;2117;47.972;7.830;2023-01-31T00:41:11;7.10;;;4.33;;
4206;SDS011;2117;47.972;7.830;2023-01-31T00:43:37;6.07;;;3.80;;
4206;SDS011;2117;47.972;7.830;2023-01-31T00:46:03;6.03;;;3.17;;
4206;SDS011;2117;47.972;7.830;2023-01-31T00:48:29;6.60;;;4.37;;
4206;SDS011;2117;47.972;7.830;2023-01-31T00:50:55;5.83;;;4.07;;
4206;SDS011;2117;47.972;7.830;2023-01-31T00:53:20;7.10;;;4.50;;
4206;SDS011;2117;47.972;7.830;2023-01-31T00:55:55;8.67;;;4.20;;
4206;SDS011;2117;47.972;7.830;2023-01-31T00:58:26;6.63;;;4.17;;
4206;SDS011;2117;47.972;7.830;2023-01-31T01:00:52;8.57;;;4.13;;
4206;SDS011;2117;47.972;7.830;2023-01-31T01:03:18;7.63;;;4.10;;
4206;SDS011;2117;47.972;7.830;2023-01-31T01:05:43;6.90;;;4.50;;
4206;SDS011;2117;47.972;7.830;2023-01-31T01:08:09;6.77;;;4.40;;
4206;SDS011;2117;47.972;7.830;2023-01-31T01:10:34;7.97;;;4.87;;
4206;SDS011;2117;47.972;7.830;2023-01-31T01:13:01;8.30;;;4.80;;
4206;SDS011;2117;47.972;7.830;2023-01-31T01:15:27;8.60;;;4.53;;
4206;SDS011;2117;47.972;7.830;2023-01-31T01:17:53;6.27;;;4.03;;
4206;SDS011;2117;47.972;7.830;2023-01-31T01:20:19;5.53;;;4.13;;
4206;SDS011;2117;47.972;7.830;2023-01-31T01:22:45;5.00;;;3.20;;
4206;SDS011;2117;47.972;7.830;2023-01-31T01:25:10;6.57;;;3.70;;
4206;SDS011;2117;47.972;7.830;2023-01-31T01:27:36;6.27;;;3.53;;
4206;SDS011;2117;47.972;7.830;2023-01-31T01:30:02;4.47;;;2.93;;
4206;SDS011;2117;47.972;7.830;2023-01-31T01:32:29;4.20;;;3.17;;
4206;SDS011;2117;47.972;7.830;2023-01-31T01:34:54;4.10;;;2.70;;
4206;SDS011;2117;47.972;7.830;2023-01-31T01:37:20;5.40;;;3.47;;
4206;SDS011;2117;47.972;7.830;2023-01-31T01:39:46;7.77;;;3.57;;
4206;SDS011;2117;47.972;7.830;2023-01-31T01:42:17;5.53;;;3.40;;
4206;SDS011;2117;47.972;7.830;2023-01-31T01:44:48;4.83;;;3.20;;
4206;SDS011;2117;47.972;7.830;2023-01-31T01:50:05;4.87;;;2.77;;
4206;SDS011;2117;47.972;7.830;2023-01-31T01:52:32;4.70;;;2.90;;
4206;SDS011;2117;47.972;7.830;2023-01-31T01:55:06;3.70;;;2.37;;
4206;SDS011;2117;47.972;7.830;2023-01-31T01:57:57;3.50;;;2.33;;
4206;SDS011;2117;47.972;7.830;2023-01-31T02:00:31;4.73;;;2.73;;
4206;SDS011;2117;47.972;7.830;2023-01-31T02:02:59;4.17;;;3.00;;
4206;SDS011;2117;47.972;7.830;2023-01-31T02:05:32;4.70;;;2.90;;
4206;SDS011;2117;47.972;7.830;2023-01-31T02:08:02;4.53;;;2.30;;
4206;SDS011;2117;47.972;7.830;2023-01-31T02:13:08;5.63;;;3.23;;
4206;SDS011;2117;47.972;7.830;2023-01-31T02:15:35;4.37;;;2.70;;
4206;SDS011;2117;47.972;7.830;2023-01-31T02:18:01;4.50;;;2.80;;
4206;SDS011;2117;47.972;7.830;2023-01-31T02:20:32;4.10;;;2.83;;
4206;SDS011;2117;47.972;7.830;2023-01-31T02:29:01;5.63;;;2.90;;
4206;SDS011;2117;47.972;7.830;2023-01-31T02:35:02;7.57;;;3.30;;
4206;SDS011;2117;47.972;7.830;2023-01-31T02:40:23;9.20;;;3.07;;
4206;SDS011;2117;47.972;7.830;2023-01-31T02:43:10;5.97;;;2.70;;
4206;SDS011;2117;47.972;7.830;2023-01-31T02:48:44;8.70;;;3.53;;
4206;SDS011;2117;47.972;7.830;2023-01-31T02:51:18;4.90;;;3.17;;
4206;SDS011;2117;47.972;7.830;2023-01-31T02:53:55;5.17;;;2.77;;
4206;SDS011;2117;47.972;7.830;2023-01-31T02:56:30;3.83;;;3.00;;
4206;SDS011;2117;47.972;7.830;2023-01-31T02:59:01;5.30;;;2.27;;
4206;SDS011;2117;47.972;7.830;2023-01-31T03:01:42;3.33;;;2.20;;
4206;SDS011;2117;47.972;7.830;2023-01-31T03:04:12;2.13;;;1.93;;
4206;SDS011;2117;47.972;7.830;2023-01-31T03:09:20;4.40;;;2.90;;
4206;SDS011;2117;47.972;7.830;2023-01-31T03:12:08;4.93;;;3.17;;
4206;SDS011;2117;47.972;7.830;2023-01-31T03:14:52;5.30;;;2.70;;
4206;SDS011;2117;47.972;7.830;2023-01-31T03:20:38;3.53;;;2.67;;
4206;SDS011;2117;47.972;7.830;2023-01-31T03:23:17;3.37;;;2.60;;
4206;SDS011;2117;47.972;7.830;2023-01-31T03:25:45;5.73;;;2.30;;
4206;SDS011;2117;47.972;7.830;2023-01-31T03:28:13;5.13;;;2.60;;
4206;SDS011;2117;47.972;7.830;2023-01-31T03:30:49;4.47;;;2.60;;
4206;SDS011;2117;47.972;7.830;2023-01-31T03:33:24;4.17;;;2.40;;
4206;SDS011;2117;47.972;7.830;2023-01-31T03:44:13;4.57;;;2.50;;
4206;SDS011;2117;47.972;7.830;2023-01-31T03:46:49;4.73;;;2.30;;
4206;SDS011;2117;47.972;7.830;2023-01-31T03:49:19;3.43;;;2.20;;
4206;SDS011;2117;47.972;7.830;2023-01-31T03:51:51;3.20;;;2.43;;
4206;SDS011;2117;47.972;7.830;2023-01-31T03:54:24;3.73;;;2.63;;
4206;SDS011;2117;47.972;7.830;2023-01-31T03:56:59;7.90;;;3.83;;
4206;SDS011;2117;47.972;7.830;2023-01-31T03:59:29;12.00;;;2.80;;
4206;SDS011;2117;47.972;7.830;2023-01-31T04:01:59;4.77;;;2.20;;
4206;SDS011;2117;47.972;7.830;2023-01-31T04:04:39;5.77;;;2.60;;
4206;SDS011;2117;47.972;7.830;2023-01-31T04:07:09;4.17;;;2.43;;
4206;SDS011;2117;47.972;7.830;2023-01-31T04:09:35;4.20;;;2.50;;
4206;SDS011;2117;47.972;7.830;2023-01-31T04:12:02;7.40;;;2.23;;
4206;SDS011;2117;47.972;7.830;2023-01-31T04:14:28;3.70;;;1.93;;
4206;SDS011;2117;47.972;7.830;2023-01-31T04:16:54;7.03;;;2.13;;
4206;SDS011;2117;47.972;7.830;2023-01-31T04:19:19;5.07;;;2.67;;
4206;SDS011;2117;47.972;7.830;2023-01-31T04:21:45;4.50;;;2.20;;
4206;SDS011;2117;47.972;7.830;2023-01-31T04:24:11;3.70;;;2.23;;
4206;SDS011;2117;47.972;7.830;2023-01-31T04:26:36;6.80;;;2.23;;
4206;SDS011;2117;47.972;7.830;2023-01-31T04:29:02;3.23;;;2.07;;
4206;SDS011;2117;47.972;7.830;2023-01-31T04:31:28;3.67;;;2.10;;
4206;SDS011;2117;47.972;7.830;2023-01-31T04:33:54;4.80;;;2.47;;
4206;SDS011;2117;47.972;7.830;2023-01-31T04:36:21;3.17;;;2.37;;
4206;SDS011;2117;47.972;7.830;2023-01-31T04:38:48;2.73;;;2.10;;
4206;SDS011;2117;47.972;7.830;2023-01-31T04:41:13;3.87;;;2.30;;
4206;SDS011;2117;47.972;7.830;2023-01-31T04:43:39;4.20;;;2.90;;
4206;SDS011;2117;47.972;7.830;2023-01-31T04:46:04;6.70;;;2.97;;
4206;SDS011;2117;47.972;7.830;2023-01-31T04:48:30;8.43;;;3.47;;
4206;SDS011;2117;47.972;7.830;2023-01-31T04:50:55;10.60;;;4.50;;
4206;SDS011;2117;47.972;7.830;2023-01-31T04:53:21;9.27;;;4.30;;
4206;SDS011;2117;47.972;7.830;2023-01-31T04:55:47;8.83;;;3.63;;
4206;SDS011;2117;47.972;7.830;2023-01-31T04:58:12;14.10;;;4.63;;
4206;SDS011;2117;47.972;7.830;2023-01-31T05:00:38;9.60;;;4.30;;
4206;SDS011;2117;47.972;7.830;2023-01-31T05:03:03;11.17;;;4.53;;
4206;SDS011;2117;47.972;7.830;2023-01-31T05:05:29;8.20;;;3.70;;
4206;SDS011;2117;47.972;7.830;2023-01-31T05:07:57;10.80;;;4.00;;
4206;SDS011;2117;47.972;7.830;2023-01-31T05:10:22;13.03;;;4.80;;
4206;SDS011;2117;47.972;7.830;2023-01-31T05:12:48;8.40;;;3.93;;
4206;SDS011;2117;47.972;7.830;2023-01-31T05:15:13;11.37;;;3.33;;
4206;SDS011;2117;47.972;7.830;2023-01-31T05:17:39;8.93;;;3.10;;
4206;SDS011;2117;47.972;7.830;2023-01-31T05:20:05;7.13;;;3.27;;
4206;SDS011;2117;47.972;7.830;2023-01-31T05:22:31;6.13;;;3.07;;
4206;SDS011;2117;47.972;7.830;2023-01-31T05:24:56;14.03;;;3.53;;
4206;SDS011;2117;47.972;7.830;2023-01-31T05:27:22;8.10;;;3.00;;
4206;SDS011;2117;47.972;7.830;2023-01-31T05:29:48;6.73;;;2.70;;
4206;SDS011;2117;47.972;7.830;2023-01-31T05:32:14;9.13;;;3.13;;
4206;SDS011;2117;47.972;7.830;2023-01-31T05:34:41;8.30;;;4.27;;
4206;SDS011;2117;47.972;7.830;2023-01-31T05:37:07;11.50;;;4.20;;
4206;SDS011;2117;47.972;7.830;2023-01-31T05:39:32;7.40;;;3.70;;
4206;SDS011;2117;47.972;7.830;2023-01-31T05:41:58;11.43;;;4.20;;
4206;SDS011;2117;47.972;7.830;2023-01-31T05:44:24;10.80;;;4.60;;
4206;SDS011;2117;47.972;7.830;2023-01-31T05:46:49;11.50;;;4.27;;
4206;SDS011;2117;47.972;7.830;2023-01-31T05:49:15;9.93;;;4.50;;
4206;SDS011;2117;47.972;7.830;2023-01-31T05:51:41;8.60;;;3.90;;
4206;SDS011;2117;47.972;7.830;2023-01-31T05:54:06;8.60;;;4.00;;
4206;SDS011;2117;47.972;7.830;2023-01-31T05:56:32;13.90;;;4.83;;
4206;SDS011;2117;47.972;7.830;2023-01-31T05:58:58;19.87;;;5.07;;
4206;SDS011;2117;47.972;7.830;2023-01-31T06:01:27;11.90;;;5.87;;
4206;SDS011;2117;47.972;7.830;2023-01-31T06:03:53;13.90;;;5.87;;
4206;SDS011;2117;47.972;7.830;2023-01-31T06:06:19;13.97;;;5.40;;
4206;SDS011;2117;47.972;7.830;2023-01-31T06:08:45;11.53;;;6.20;;
4206;SDS011;2117;47.972;7.830;2023-01-31T06:11:11;17.90;;;7.50;;
4206;SDS011;2117;47.972;7.830;2023-01-31T06:13:37;31.40;;;10.17;;
4206;SDS011;2117;47.972;7.830;2023-01-31T06:16:03;26.63;;;10.80;;
4206;SDS011;2117;47.972;7.830;2023-01-31T06:18:30;39.13;;;13.37;;
4206;SDS011;2117;47.972;7.830;2023-01-31T06:20:56;34.43;;;12.50;;
4206;SDS011;2117;47.972;7.830;2023-01-31T06:23:21;25.43;;;10.87;;
4206;SDS011;2117;47.972;7.830;2023-01-31T06:25:48;28.47;;;10.60;;
4206;SDS011;2117;47.972;7.830;2023-01-31T06:28:15;25.70;;;9.77;;
4206;SDS011;2117;47.972;7.830;2023-01-31T06:30:41;31.70;;;10.10;;
4206;SDS011;2117;47.972;7.830;2023-01-31T06:33:07;14.97;;;7.07;;
4206;SDS011;2117;47.972;7.830;2023-01-31T06:35:33;19.77;;;7.97;;
4206;SDS011;2117;47.972;7.830;2023-01-31T06:37:59;24.73;;;9.43;;
4206;SDS011;2117;47.972;7.830;2023-01-31T06:40:25;33.17;;;12.40;;
4206;SDS011;2117;47.972;7.830;2023-01-31T06:42:50;30.63;;;10.47;;
4206;SDS011;2117;47.972;7.830;2023-01-31T06:45:16;23.50;;;10.20;;
4206;SDS011;2117;47.972;7.830;2023-01-31T06:47:43;28.83;;;11.87;;
4206;SDS011;2117;47.972;7.830;2023-01-31T06:50:09;30.43;;;10.90;;
4206;SDS011;2117;47.972;7.830;2023-01-31T06:52:35;23.13;;;9.33;;
4206;SDS011;2117;47.972;7.830;2023-01-31T06:55:01;26.03;;;10.70;;
4206;SDS011;2117;47.972;7.830;2023-01-31T06:57:27;24.13;;;11.33;;
4206;SDS011;2117;47.972;7.830;2023-01-31T06:59:53;23.50;;;10.13;;
4206;SDS011;2117;47.972;7.830;2023-01-31T07:02:18;22.03;;;11.13;;
4206;SDS011;2117;47.972;7.830;2023-01-31T07:04:44;21.30;;;11.00;;
4206;SDS011;2117;47.972;7.830;2023-01-31T07:07:09;29.77;;;14.00;;
4206;SDS011;2117;47.972;7.830;2023-01-31T07:09:35;38.20;;;14.93;;
4206;SDS011;2117;47.972;7.830;2023-01-31T07:12:01;40.20;;;16.60;;
4206;SDS011;2117;47.972;7.830;2023-01-31T07:14:27;36.07;;;17.33;;
4206;SDS011;2117;47.972;7.830;2023-01-31T07:16:52;39.20;;;15.53;;
4206;SDS011;2117;47.972;7.830;2023-01-31T07:19:18;27.73;;;12.53;;
4206;SDS011;2117;47.972;7.830;2023-01-31T07:21:44;26.40;;;12.50;;
4206;SDS011;2117;47.972;7.830;2023-01-31T07:24:11;17.40;;;8.67;;
4206;SDS011;2117;47.972;7.830;2023-01-31T07:26:36;16.70;;;8.63;;
4206;SDS011;2117;47.972;7.830;2023-01-31T07:29:02;14.43;;;7.80;;
4206;SDS011;2117;47.972;7.830;2023-01-31T07:31:27;17.30;;;7.30;;
4206;SDS011;2117;47.972;7.830;2023-01-31T07:33:53;13.20;;;7.60;;
4206;SDS011;2117;47.972;7.830;2023-01-31T07:36:18;14.10;;;7.37;;
4206;SDS011;2117;47.972;7.830;2023-01-31T07:38:51;13.50;;;6.43;;
4206;SDS011;2117;47.972;7.830;2023-01-31T07:41:17;11.80;;;6.50;;
4206;SDS011;2117;47.972;7.830;2023-01-31T07:43:43;15.27;;;6.77;;
4206;SDS011;2117;47.972;7.830;2023-01-31T07:46:08;14.13;;;6.50;;
4206;SDS011;2117;47.972;7.830;2023-01-31T07:48:35;13.23;;;8.30;;
4206;SDS011;2117;47.972;7.830;2023-01-31T07:51:01;11.00;;;6.83;;
4206;SDS011;2117;47.972;7.830;2023-01-31T07:53:28;12.90;;;6.93;;
4206;SDS011;2117;47.972;7.830;2023-01-31T07:56:03;9.87;;;6.70;;
4206;SDS011;2117;47.972;7.830;2023-01-31T07:58:34;12.90;;;5.53;;
4206;SDS011;2117;47.972;7.830;2023-01-31T08:01:00;11.77;;;7.30;;
4206;SDS011;2117;47.972;7.830;2023-01-31T08:03:44;11.93;;;5.80;;
4206;SDS011;2117;47.972;7.830;2023-01-31T08:06:10;11.60;;;6.00;;
4206;SDS011;2117;47.972;7.830;2023-01-31T08:08:37;10.90;;;5.80;;
4206;SDS011;2117;47.972;7.830;2023-01-31T08:11:04;11.23;;;6.90;;
4206;SDS011;2117;47.972;7.830;2023-01-31T08:13:31;17.27;;;7.50;;
4206;SDS011;2117;47.972;7.830;2023-01-31T08:15:57;11.70;;;6.10;;
4206;SDS011;2117;47.972;7.830;2023-01-31T08:18:23;9.97;;;7.10;;
4206;SDS011;2117;47.972;7.830;2023-01-31T08:20:49;14.50;;;7.47;;
4206;SDS011;2117;47.972;7.830;2023-01-31T08:23:15;15.87;;;7.00;;
4206;SDS011;2117;47.972;7.830;2023-01-31T08:25:40;12.40;;;5.73;;
4206;SDS011;2117;47.972;7.830;2023-01-31T08:28:06;10.70;;;5.07;;
4206;SDS011;2117;47.972;7.830;2023-01-31T08:30:32;9.67;;;5.50;;
4206;SDS011;2117;47.972;7.830;2023-01-31T08:32:58;14.37;;;5.60;;
4206;SDS011;2117;47.972;7.830;2023-01-31T08:35:24;10.10;;;5.03;;
4206;SDS011;2117;47.972;7.830;2023-01-31T08:37:51;12.47;;;5.13;;
4206;SDS011;2117;47.972;7.830;2023-01-31T08:40:16;11.57;;;5.93;;
4206;SDS011;2117;47.972;7.830;2023-01-31T08:42:42;9.40;;;6.50;;
4206;SDS011;2117;47.972;7.830;2023-01-31T08:45:08;10.83;;;5.47;;
4206;SDS011;2117;47.972;7.830;2023-01-31T08:47:34;7.83;;;5.13;;
4206;SDS011;2117;47.972;7.830;2023-01-31T08:50:00;9.17;;;5.40;;
4206;SDS011;2117;47.972;7.830;2023-01-31T08:52:26;10.60;;;5.50;;
4206;SDS011;2117;47.972;7.830;2023-01-31T08:54:51;12.80;;;6.30;;
4206;SDS011;2117;47.972;7.830;2023-01-31T08:57:17;11.23;;;5.10;;
4206;SDS011;2117;47.972;7.830;2023-01-31T08:59:44;9.53;;;5.50;;
4206;SDS011;2117;47.972;7.830;2023-01-31T09:02:10;11.10;;;5.67;;
4206;SDS011;2117;47.972;7.830;2023-01-31T09:04:37;15.33;;;5.80;;
4206;SDS011;2117;47.972;7.830;2023-01-31T09:07:03;9.37;;;6.20;;
4206;SDS011;2117;47.972;7.830;2023-01-31T09:09:28;15.30;;;5.43;;
4206;SDS011;2117;47.972;7.830;2023-01-31T09:11:54;10.87;;;5.37;;
4206;SDS011;2117;47.972;7.830;2023-01-31T09:14:19;8.13;;;5.03;;
4206;SDS011;2117;47.972;7.830;2023-01-31T09:16:45;8.60;;;5.47;;
4206;SDS011;2117;47.972;7.830;2023-01-31T09:19:11;13.87;;;5.33;;
4206;SDS011;2117;47.972;7.830;2023-01-31T09:21:36;12.10;;;6.27;;
4206;SDS011;2117;47.972;7.830;2023-01-31T09:24:02;12.93;;;7.00;;
4206;SDS011;2117;47.972;7.830;2023-01-31T09:26:28;12.90;;;7.13;;
4206;SDS011;2117;47.972;7.830;2023-01-31T09:28:54;13.37;;;6.83;;
4206;SDS011;2117;47.972;7.830;2023-01-31T09:31:22;14.27;;;6.93;;
4206;SDS011;2117;47.972;7.830;2023-01-31T09:33:47;8.73;;;6.43;;
4206;SDS011;2117;47.972;7.830;2023-01-31T09:36:14;13.90;;;6.07;;
4206;SDS011;2117;47.972;7.830;2023-01-31T09:38:41;14.33;;;6.77;;
4206;SDS011;2117;47.972;7.830;2023-01-31T09:41:15;10.37;;;6.53;;
4206;SDS011;2117;47.972;7.830;2023-01-31T09:44:00;13.53;;;6.30;;
4206;SDS011;2117;47.972;7.830;2023-01-31T09:46:35;15.27;;;6.20;;
4206;SDS011;2117;47.972;7.830;2023-01-31T09:49:03;11.23;;;6.63;;
4206;SDS011;2117;47.972;7.830;2023-01-31T09:51:33;12.87;;;7.43;;
4206;SDS011;2117;47.972;7.830;2023-01-31T09:53:59;9.37;;;5.90;;
4206;SDS011;2117;47.972;7.830;2023-01-31T10:09:39;12.30;;;6.10;;
4206;SDS011;2117;47.972;7.830;2023-01-31T10:12:10;8.63;;;5.33;;
4206;SDS011;2117;47.972;7.830;2023-01-31T10:15:02;9.00;;;3.27;;
4206;SDS011;2117;47.972;7.830;2023-01-31T10:17:39;13.60;;;3.73;;
4206;SDS011;2117;47.972;7.830;2023-01-31T10:25:27;18.60;;;4.83;;
4206;SDS011;2117;47.972;7.830;2023-01-31T10:36:09;4.83;;;2.30;;
4206;SDS011;2117;47.972;7.830;2023-01-31T10:38:53;10.27;;;3.10;;
4206;SDS011;2117;47.972;7.830;2023-01-31T10:41:32;8.40;;;3.07;;
4206;SDS011;2117;47.972;7.830;2023-01-31T10:44:23;9.13;;;3.57;;
4206;SDS011;2117;47.972;7.830;2023-01-31T10:46:56;6.50;;;2.70;;
4206;SDS011;2117;47.972;7.830;2023-01-31T10:49:23;5.07;;;2.90;;
4206;SDS011;2117;47.972;7.830;2023-01-31T10:51:54;7.00;;;2.60;;
4206;SDS011;2117;47.972;7.830;2023-01-31T10:57:38;6.23;;;3.83;;
4206;SDS011;2117;47.972;7.830;2023-01-31T11:00:04;5.30;;;3.23;;
4206;SDS011;2117;47.972;7.830;2023-01-31T11:02:30;9.80;;;3.23;;
4206;SDS011;2117;47.972;7.830;2023-01-31T11:04:57;7.87;;;2.43;;
4206;SDS011;2117;47.972;7.830;2023-01-31T11:07:23;9.47;;;3.03;;
4206;SDS011;2117;47.972;7.830;2023-01-31T11:09:54;8.73;;;3.07;;
4206;SDS011;2117;47.972;7.830;2023-01-31T11:12:21;6.23;;;2.80;;
4206;SDS011;2117;47.972;7.830;2023-01-31T11:15:04;11.13;;;3.07;;
4206;SDS011;2117;47.972;7.830;2023-01-31T11:17:44;7.03;;;3.57;;
4206;SDS011;2117;47.972;7.830;2023-01-31T11:20:30;5.07;;;3.00;;
4206;SDS011;2117;47.972;7.830;2023-01-31T11:23:19;6.63;;;3.27;;
4206;SDS011;2117;47.972;7.830;2023-01-31T11:25:48;8.17;;;4.20;;
4206;SDS011;2117;47.972;7.830;2023-01-31T11:28:17;8.43;;;3.27;;
4206;SDS011;2117;47.972;7.830;2023-01-31T11:30:46;6.73;;;4.23;;
4206;SDS011;2117;47.972;7.830;2023-01-31T11:36:17;12.03;;;4.30;;
4206;SDS011;2117;47.972;7.830;2023-01-31T11:38:50;9.73;;;7.53;;
4206;SDS011;2117;47.972;7.830;2023-01-31T11:46:59;10.70;;;6.07;;
4206;SDS011;2117;47.972;7.830;2023-01-31T11:49:29;15.70;;;7.90;;
4206;SDS011;2117;47.972;7.830;2023-01-31T11:52:10;10.57;;;5.50;;
4206;SDS011;2117;47.972;7.830;2023-01-31T11:54:55;10.80;;;5.47;;
4206;SDS011;2117;47.972;7.830;2023-01-31T11:57:42;7.70;;;4.77;;
4206;SDS011;2117;47.972;7.830;2023-01-31T12:00:19;10.20;;;4.07;;
4206;SDS011;2117;47.972;7.830;2023-01-31T12:02:59;7.00;;;4.53;;
4206;SDS011;2117;47.972;7.830;2023-01-31T12:05:32;7.40;;;4.40;;
4206;SDS011;2117;47.972;7.830;2023-01-31T12:08:07;11.50;;;5.10;;
4206;SDS011;2117;47.972;7.830;2023-01-31T12:11:42;7.67;;;4.70;;
4206;SDS011;2117;47.972;7.830;2023-01-31T12:14:00;13.63;;;4.73;;
4206;SDS011;2117;47.972;7.830;2023-01-31T12:16:36;9.53;;;3.57;;
4206;SDS011;2117;47.972;7.830;2023-01-31T12:21:48;10.90;;;4.67;;
4206;SDS011;2117;47.972;7.830;2023-01-31T12:30:17;8.30;;;4.53;;
4206;SDS011;2117;47.972;7.830;2023-01-31T12:32:52;10.30;;;4.70;;
4206;SDS011;2117;47.972;7.830;2023-01-31T12:35:38;8.90;;;4.27;;
4206;SDS011;2117;47.972;7.830;2023-01-31T12:43:45;8.80;;;4.37;;
4206;SDS011;2117;47.972;7.830;2023-01-31T12:49:40;8.40;;;4.60;;
4206;SDS011;2117;47.972;7.830;2023-01-31T12:56:22;8.90;;;4.43;;
4206;SDS011;2117;47.972;7.830;2023-01-31T13:01:19;10.30;;;4.73;;
4206;SDS011;2117;47.972;7.830;2023-01-31T13:04:02;6.67;;;4.40;;
4206;SDS011;2117;47.972;7.830;2023-01-31T13:06:50;11.13;;;4.60;;
4206;SDS011;2117;47.972;7.830;2023-01-31T13:09:21;10.60;;;5.20;;
4206;SDS011;2117;47.972;7.830;2023-01-31T13:12:24;13.30;;;6.27;;
4206;SDS011;2117;47.972;7.830;2023-01-31T13:14:47;9.87;;;4.87;;
4206;SDS011;2117;47.972;7.830;2023-01-31T13:17:22;7.80;;;5.13;;
4206;SDS011;2117;47.972;7.830;2023-01-31T13:19:51;8.97;;;4.13;;
4206;SDS011;2117;47.972;7.830;2023-01-31T13:22:19;8.20;;;4.70;;
4206;SDS011;2117;47.972;7.830;2023-01-31T13:25:11;10.97;;;4.60;;
4206;SDS011;2117;47.972;7.830;2023-01-31T13:27:43;12.50;;;6.43;;
4206;SDS011;2117;47.972;7.830;2023-01-31T13:30:35;76.80;;;28.67;;
4206;SDS011;2117;47.972;7.830;2023-01-31T13:33:29;13.00;;;8.30;;
4206;SDS011;2117;47.972;7.830;2023-01-31T13:35:56;10.03;;;5.17;;
4206;SDS011;2117;47.972;7.830;2023-01-31T13:38:42;6.73;;;4.67;;
4206;SDS011;2117;47.972;7.830;2023-01-31T13:41:28;8.03;;;3.87;;
4206;SDS011;2117;47.972;7.830;2023-01-31T13:43:55;6.33;;;3.57;;
4206;SDS011;2117;47.972;7.830;2023-01-31T13:46:23;6.87;;;2.90;;
4206;SDS011;2117;47.972;7.830;2023-01-31T13:49:17;6.93;;;3.63;;
4206;SDS011;2117;47.972;7.830;2023-01-31T13:52:18;7.17;;;3.80;;
4206;SDS011;2117;47.972;7.830;2023-01-31T13:54:52;8.90;;;4.27;;
4206;SDS011;2117;47.972;7.830;2023-01-31T13:57:32;8.00;;;3.77;;
4206;SDS011;2117;47.972;7.830;2023-01-31T14:00:21;10.03;;;3.83;;
4206;SDS011;2117;47.972;7.830;2023-01-31T14:03:12;10.80;;;3.90;;
4206;SDS011;2117;47.972;7.830;2023-01-31T14:13:49;10.43;;;3.40;;
4206;SDS011;2117;47.972;7.830;2023-01-31T14:19:01;11.83;;;4.87;;
4206;SDS011;2117;47.972;7.830;2023-01-31T14:21:54;10.77;;;3.93;;
4206;SDS011;2117;47.972;7.830;2023-01-31T14:27:18;11.27;;;5.30;;
4206;SDS011;2117;47.972;7.830;2023-01-31T14:29:55;14.07;;;7.70;;
4206;SDS011;2117;47.972;7.830;2023-01-31T14:32:40;7.03;;;4.90;;
4206;SDS011;2117;47.972;7.830;2023-01-31T14:40:28;12.87;;;8.97;;
4206;SDS011;2117;47.972;7.830;2023-01-31T14:58:00;25.50;;;9.90;;
4206;SDS011;2117;47.972;7.830;2023-01-31T15:00:29;25.50;;;10.43;;
4206;SDS011;2117;47.972;7.830;2023-01-31T15:03:03;19.57;;;9.63;;
4206;SDS011;2117;47.972;7.830;2023-01-31T15:08:02;11.37;;;6.27;;
4206;SDS011;2117;47.972;7.830;2023-01-31T15:16:06;13.63;;;6.90;;
4206;SDS011;2117;47.972;7.830;2023-01-31T15:18:33;25.63;;;10.37;;
4206;SDS011;2117;47.972;7.830;2023-01-31T15:21:00;37.83;;;16.90;;
4206;SDS011;2117;47.972;7.830;2023-01-31T15:23:30;22.33;;;10.10;;
4206;SDS011;2117;47.972;7.830;2023-01-31T15:25:57;29.67;;;12.93;;
4206;SDS011;2117;47.972;7.830;2023-01-31T15:28:25;23.60;;;10.77;;
4206;SDS011;2117;47.972;7.830;2023-01-31T15:30:57;27.93;;;11.83;;
4206;SDS011;2117;47.972;7.830;2023-01-31T15:33:29;27.73;;;11.33;;
4206;SDS011;2117;47.972;7.830;2023-01-31T15:36:05;15.97;;;7.83;;
4206;SDS011;2117;47.972;7.830;2023-01-31T15:38:42;29.23;;;16.70;;
4206;SDS011;2117;47.972;7.830;2023-01-31T15:43:47;13.77;;;8.33;;
4206;SDS011;2117;47.972;7.830;2023-01-31T15:46:30;9.03;;;4.93;;
4206;SDS011;2117;47.972;7.830;2023-01-31T15:48:58;8.97;;;5.83;;
4206;SDS011;2117;47.972;7.830;2023-01-31T15:51:24;32.37;;;15.57;;
4206;SDS011;2117;47.972;7.830;2023-01-31T15:54:04;23.70;;;12.17;;
4206;SDS011;2117;47.972;7.830;2023-01-31T15:56:31;47.27;;;20.97;;
4206;SDS011;2117;47.972;7.830;2023-01-31T15:59:00;59.30;;;27.23;;
4206;SDS011;2117;47.972;7.830;2023-01-31T16:01:33;16.10;;;6.67;;
4206;SDS011;2117;47.972;7.830;2023-01-31T16:03:59;8.17;;;5.37;;
4206;SDS011;2117;47.972;7.830;2023-01-31T16:06:26;10.23;;;5.40;;
4206;SDS011;2117;47.972;7.830;2023-01-31T16:09:03;22.80;;;13.00;;
4206;SDS011;2117;47.972;7.830;2023-01-31T16:11:30;14.13;;;6.10;;
4206;SDS011;2117;47.972;7.830;2023-01-31T16:13:58;16.13;;;8.57;;
4206;SDS011;2117;47.972;7.830;2023-01-31T16:16:29;8.97;;;5.57;;
4206;SDS011;2117;47.972;7.830;2023-01-31T16:18:58;10.93;;;5.37;;
4206;SDS011;2117;47.972;7.830;2023-01-31T16:21:32;11.33;;;6.37;;
4206;SDS011;2117;47.972;7.830;2023-01-31T16:24:16;10.83;;;5.90;;
4206;SDS011;2117;47.972;7.830;2023-01-31T16:34:53;6.33;;;4.30;;
4206;SDS011;2117;47.972;7.830;2023-01-31T16:37:34;13.23;;;8.00;;
4206;SDS011;2117;47.972;7.830;2023-01-31T16:40:06;16.00;;;9.50;;
4206;SDS011;2117;47.972;7.830;2023-01-31T16:42:41;12.03;;;5.83;;
4206;SDS011;2117;47.972;7.830;2023-01-31T16:47:52;14.13;;;6.10;;
4206;SDS011;2117;47.972;7.830;2023-01-31T16:52:45;39.97;;;17.90;;
4206;SDS011;2117;47.972;7.830;2023-01-31T16:55:29;9.70;;;5.90;;
4206;SDS011;2117;47.972;7.830;2023-01-31T16:57:55;15.20;;;10.00;;
4206;SDS011;2117;47.972;7.830;2023-01-31T17:02:49;11.70;;;5.40;;
4206;SDS011;2117;47.972;7.830;2023-01-31T17:07:42;9.73;;;5.83;;
4206;SDS011;2117;47.972;7.830;2023-01-31T17:10:10;7.83;;;5.00;;
4206;SDS011;2117;47.972;7.830;2023-01-31T17:12:43;9.10;;;4.83;;
4206;SDS011;2117;47.972;7.830;2023-01-31T17:15:12;10.40;;;4.93;;
4206;SDS011;2117;47.972;7.830;2023-01-31T17:17:40;13.03;;;7.07;;
4206;SDS011;2117;47.972;7.830;2023-01-31T17:20:06;9.20;;;5.50;;
4206;SDS011;2117;47.972;7.830;2023-01-31T17:22:32;10.03;;;5.30;;
4206;SDS011;2117;47.972;7.830;2023-01-31T17:24:57;10.47;;;5.83;;
4206;SDS011;2117;47.972;7.830;2023-01-31T17:27:23;13.40;;;7.00;;
4206;SDS011;2117;47.972;7.830;2023-01-31T17:29:49;10.43;;;6.30;;
4206;SDS011;2117;47.972;7.830;2023-01-31T17:32:15;13.40;;;6.33;;
4206;SDS011;2117;47.972;7.830;2023-01-31T17:34:43;12.73;;;6.60;;
4206;SDS011;2117;47.972;7.830;2023-01-31T17:37:10;12.23;;;8.07;;
4206;SDS011;2117;47.972;7.830;2023-01-31T17:39:36;11.47;;;6.80;;
4206;SDS011;2117;47.972;7.830;2023-01-31T17:42:02;9.70;;;5.27;;
4206;SDS011;2117;47.972;7.830;2023-01-31T17:44:28;9.10;;;5.60;;
4206;SDS011;2117;47.972;7.830;2023-01-31T17:46:54;9.70;;;6.30;;
4206;SDS011;2117;47.972;7.830;2023-01-31T17:49:20;9.07;;;6.53;;
4206;SDS011;2117;47.972;7.830;2023-01-31T17:51:45;10.10;;;5.73;;
4206;SDS011;2117;47.972;7.830;2023-01-31T17:54:11;12.33;;;6.57;;
4206;SDS011;2117;47.972;7.830;2023-01-31T17:56:37;9.37;;;5.93;;
4206;SDS011;2117;47.972;7.830;2023-01-31T17:59:03;12.73;;;6.87;;
4206;SDS011;2117;47.972;7.830;2023-01-31T18:01:29;9.63;;;6.63;;
4206;SDS011;2117;47.972;7.830;2023-01-31T18:03:56;10.70;;;6.43;;
4206;SDS011;2117;47.972;7.830;2023-01-31T18:06:24;13.77;;;7.10;;